createdAt,value
2023-04-09T00:00:57.933Z,246.70
2023-04-09T00:01:58.006Z,249.46
2023-04-09T00:02:58.117Z,244.54
2023-04-09T00:03:58.253Z,245.41
2023-04-09T00:04:58.136Z,246.49
2023-04-09T00:05:58.173Z,249.86
2023-04-09T00:06:58.225Z,250.60
2023-04-09T00:07:58.275Z,247.46
2023-04-09T00:08:58.334Z,244.20
2023-04-09T00:09:58.401Z,239.24
2023-04-09T00:10:58.436Z,232.73
2023-04-09T00:11:58.496Z,228.65
2023-04-09T00:12:58.550Z,225.12
2023-04-09T00:13:58.629Z,221.90
2023-04-09T00:14:58.671Z,222.02
2023-04-09T00:15:58.760Z,223.83
2023-04-09T00:16:58.814Z,228.55
2023-04-09T00:17:58.937Z,230.25
2023-04-09T00:18:58.926Z,229.28
2023-04-09T00:19:58.990Z,227.78
2023-04-09T00:20:59.053Z,227.36
2023-04-09T00:21:59.075Z,226.22
2023-04-09T00:22:59.146Z,222.25
2023-04-09T00:23:59.208Z,216.90
2023-04-09T00:24:59.250Z,213.42
2023-04-09T00:25:59.305Z,211.24
2023-04-09T00:26:59.378Z,210.38
2023-04-09T00:27:59.415Z,211.34
2023-04-09T00:28:59.486Z,212.81
2023-04-09T00:29:59.546Z,215.08
2023-04-09T00:30:59.608Z,218.26
2023-04-09T00:31:59.735Z,221.94
2023-04-09T00:32:59.752Z,223.12
2023-04-09T00:33:59.827Z,225.93
2023-04-09T00:34:59.843Z,225.87
2023-04-09T00:35:59.902Z,225.25
2023-04-09T00:36:59.963Z,225.07
2023-04-09T00:37:59.984Z,224.67
2023-04-09T00:39:00.054Z,223.74
2023-04-09T00:40:00.105Z,223.92
2023-04-09T00:41:00.155Z,223.53
2023-04-09T00:42:00.238Z,225.02
2023-04-09T00:43:00.255Z,226.24
2023-04-09T00:44:00.304Z,230.65
2023-04-09T00:45:00.394Z,234.69
2023-04-09T00:46:00.499Z,235.65
2023-04-09T00:47:00.473Z,235.88
2023-04-09T00:48:00.591Z,235.70
2023-04-09T00:49:00.581Z,233.75
2023-04-09T00:50:00.655Z,233.37
2023-04-09T00:51:00.684Z,236.57
2023-04-09T00:52:00.721Z,237.96
2023-04-09T00:53:00.776Z,237.53
2023-04-09T00:54:00.816Z,234.90
2023-04-09T00:55:00.851Z,233.25
2023-04-09T00:56:00.915Z,235.64
2023-04-09T00:57:01.008Z,244.05
2023-04-09T00:58:01.042Z,248.72
2023-04-09T00:59:01.104Z,247.29
2023-04-09T01:00:01.096Z,243.69
2023-04-09T01:01:01.158Z,240.75
2023-04-09T01:02:01.212Z,238.61
2023-04-09T01:03:01.279Z,236.62
2023-04-09T01:04:01.256Z,234.09
2023-04-09T01:05:01.244Z,232.81
2023-04-09T01:06:01.256Z,230.69
2023-04-09T01:07:01.339Z,229.12
2023-04-09T01:08:01.321Z,230.57
2023-04-09T01:09:01.321Z,230.38
2023-04-09T01:10:01.276Z,228.58
2023-04-09T01:11:01.291Z,227.60
2023-04-09T01:12:01.319Z,228.18
2023-04-09T01:13:01.325Z,231.53
2023-04-09T01:14:01.312Z,236.34
2023-04-09T01:15:01.306Z,240.30
2023-04-09T01:16:01.288Z,240.22
2023-04-09T01:17:01.295Z,238.76
2023-04-09T01:18:01.339Z,238.87
2023-04-09T01:19:01.304Z,238.43
2023-04-09T01:20:01.318Z,240.22
2023-04-09T01:21:01.336Z,240.35
2023-04-09T01:22:01.341Z,236.62
2023-04-09T01:23:01.327Z,233.52
2023-04-09T01:24:01.332Z,232.20
2023-04-09T01:25:01.344Z,231.21
2023-04-09T01:26:01.334Z,231.19
2023-04-09T01:27:01.333Z,233.24
2023-04-09T01:28:01.372Z,232.09
2023-04-09T01:29:01.381Z,236.86
2023-04-09T01:30:01.375Z,242.92
2023-04-09T01:31:01.370Z,245.75
2023-04-09T01:32:01.348Z,250.16
2023-04-09T01:33:01.371Z,250.15
2023-04-09T01:34:01.366Z,250.32
2023-04-09T01:35:01.391Z,250.37
2023-04-09T01:36:01.417Z,248.39
2023-04-09T01:37:01.391Z,244.37
2023-04-09T01:38:01.420Z,237.87
2023-04-09T01:39:01.404Z,236.61
2023-04-09T01:40:01.464Z,235.58
2023-04-09T01:41:01.527Z,233.05
2023-04-09T01:42:01.581Z,230.91
2023-04-09T01:43:01.631Z,229.74
2023-04-09T01:44:01.688Z,227.52
2023-04-09T01:45:01.720Z,226.23
2023-04-09T01:46:01.736Z,226.93
2023-04-09T01:47:01.707Z,228.82
2023-04-09T01:48:01.771Z,233.36
2023-04-09T01:49:01.738Z,234.72
2023-04-09T01:50:01.733Z,232.92
2023-04-09T01:51:01.754Z,229.17
2023-04-09T01:52:01.775Z,223.61
2023-04-09T01:53:01.770Z,221.55
2023-04-09T01:54:01.819Z,220.49
2023-04-09T01:55:01.834Z,220.56
2023-04-09T01:56:01.961Z,222.66
2023-04-09T01:57:01.833Z,223.66
2023-04-09T01:58:01.856Z,223.48
2023-04-09T01:59:01.857Z,223.21
2023-04-09T02:00:01.874Z,224.35
2023-04-09T02:01:01.884Z,228.05
2023-04-09T02:02:01.917Z,231.91
2023-04-09T02:03:01.987Z,231.98
2023-04-09T02:04:02.001Z,232.15
2023-04-09T02:05:01.910Z,228.88
2023-04-09T02:06:01.953Z,228.08
2023-04-09T02:07:01.922Z,226.49
2023-04-09T02:08:01.978Z,225.61
2023-04-09T02:09:01.955Z,226.07
2023-04-09T02:10:01.963Z,225.63
2023-04-09T02:11:01.969Z,224.22
2023-04-09T02:12:01.985Z,223.69
2023-04-09T02:13:02.003Z,224.62
2023-04-09T02:14:02.037Z,225.63
2023-04-09T02:15:02.068Z,224.36
2023-04-09T02:16:02.452Z,223.16
2023-04-09T02:17:02.161Z,223.90
2023-04-09T02:18:02.200Z,225.83
2023-04-09T02:19:02.172Z,228.55
2023-04-09T02:20:02.214Z,230.41
2023-04-09T02:21:02.285Z,230.58
2023-04-09T02:22:02.286Z,230.38
2023-04-09T02:23:02.290Z,229.51
2023-04-09T02:24:02.325Z,229.09
2023-04-09T02:25:02.376Z,228.45
2023-04-09T02:26:02.409Z,229.23
2023-04-09T02:27:02.460Z,229.28
2023-04-09T02:28:02.478Z,230.56
2023-04-09T02:29:02.532Z,231.75
2023-04-09T02:30:02.579Z,233.50
2023-04-09T02:31:02.661Z,232.35
2023-04-09T02:32:02.686Z,231.41
2023-04-09T02:33:02.763Z,231.54
2023-04-09T02:34:02.766Z,230.27
2023-04-09T02:35:02.831Z,229.73
2023-04-09T02:36:03.014Z,233.18
2023-04-09T02:37:02.948Z,237.27
2023-04-09T02:38:02.992Z,238.52
2023-04-09T02:39:03.045Z,237.82
2023-04-09T02:40:03.108Z,237.41
2023-04-09T02:41:03.230Z,236.32
2023-04-09T02:42:03.169Z,238.03
2023-04-09T02:43:03.227Z,236.24
2023-04-09T02:44:03.259Z,233.57
2023-04-09T02:45:03.323Z,231.55
2023-04-09T02:46:03.412Z,229.93
2023-04-09T02:47:03.421Z,227.82
2023-04-09T02:48:03.452Z,225.76
2023-04-09T02:49:03.506Z,223.05
2023-04-09T02:50:03.517Z,221.52
2023-04-09T02:51:03.536Z,220.40
2023-04-09T02:52:03.568Z,218.69
2023-04-09T02:53:03.626Z,219.25
2023-04-09T02:54:03.646Z,219.56
2023-04-09T02:55:03.691Z,220.19
2023-04-09T02:56:03.737Z,219.18
2023-04-09T02:57:03.760Z,216.00
2023-04-09T02:58:03.829Z,210.31
2023-04-09T02:59:03.813Z,207.25
2023-04-09T03:00:03.878Z,204.56
2023-04-09T03:01:03.886Z,202.43
2023-04-09T03:02:04.037Z,199.65
2023-04-09T03:03:04.091Z,196.97
2023-04-09T03:04:04.146Z,194.55
2023-04-09T03:05:04.016Z,192.09
2023-04-09T03:06:04.030Z,190.62
2023-04-09T03:07:04.061Z,190.21
2023-04-09T03:08:04.090Z,190.19
2023-04-09T03:09:04.130Z,190.09
2023-04-09T03:10:04.154Z,188.55
2023-04-09T03:11:04.183Z,195.74
2023-04-09T03:12:04.221Z,207.73
2023-04-09T03:13:04.245Z,215.85
2023-04-09T03:14:04.310Z,221.55
2023-04-09T03:15:04.359Z,220.63
2023-04-09T03:16:04.377Z,219.74
2023-04-09T03:17:04.430Z,222.85
2023-04-09T03:18:04.493Z,225.92
2023-04-09T03:19:04.527Z,227.82
2023-04-09T03:20:04.595Z,227.98
2023-04-09T03:21:04.630Z,226.72
2023-04-09T03:22:04.692Z,226.57
2023-04-09T03:23:04.765Z,225.47
2023-04-09T03:24:04.838Z,224.78
2023-04-09T03:25:04.885Z,226.40
2023-04-09T03:26:04.973Z,224.95
2023-04-09T03:27:04.996Z,223.61
2023-04-09T03:28:05.065Z,222.78
2023-04-09T03:29:05.126Z,223.98
2023-04-09T03:30:05.196Z,224.29
2023-04-09T03:31:05.287Z,223.95
2023-04-09T03:32:05.299Z,223.88
2023-04-09T03:33:05.389Z,223.32
2023-04-09T03:34:05.419Z,223.44
2023-04-09T03:35:05.452Z,223.28
2023-04-09T03:36:05.538Z,224.30
2023-04-09T03:37:05.554Z,225.80
2023-04-09T03:38:05.612Z,228.25
2023-04-09T03:39:05.649Z,228.33
2023-04-09T03:40:05.684Z,228.88
2023-04-09T03:41:05.735Z,228.09
2023-04-09T03:42:05.747Z,228.31
2023-04-09T03:43:05.774Z,228.28
2023-04-09T03:44:05.848Z,226.77
2023-04-09T03:45:05.860Z,222.70
2023-04-09T03:46:05.917Z,218.28
2023-04-09T03:47:05.968Z,216.92
2023-04-09T03:48:06.020Z,216.81
2023-04-09T03:49:06.050Z,218.11
2023-04-09T03:50:06.112Z,217.63
2023-04-09T03:51:06.142Z,215.82
2023-04-09T03:52:06.170Z,214.61
2023-04-09T03:53:06.235Z,213.89
2023-04-09T03:54:06.252Z,211.94
2023-04-09T03:55:06.305Z,211.75
2023-04-09T03:56:06.355Z,213.14
2023-04-09T03:57:06.375Z,213.39
2023-04-09T03:58:06.417Z,213.21
2023-04-09T03:59:06.493Z,212.04
2023-04-09T04:00:06.514Z,211.53
2023-04-09T04:01:06.571Z,211.98
2023-04-09T04:02:06.672Z,213.75
2023-04-09T04:03:06.794Z,213.79
2023-04-09T04:04:06.688Z,212.99
2023-04-09T04:05:06.693Z,212.85
2023-04-09T04:06:06.748Z,213.94
2023-04-09T04:07:06.771Z,216.80
2023-04-09T04:08:06.808Z,219.99
2023-04-09T04:09:06.847Z,221.13
2023-04-09T04:10:06.904Z,220.45
2023-04-09T04:11:06.936Z,218.88
2023-04-09T04:12:06.965Z,217.04
2023-04-09T04:13:07.000Z,216.65
2023-04-09T04:14:07.007Z,218.36
2023-04-09T04:15:07.044Z,221.53
2023-04-09T04:16:07.231Z,221.92
2023-04-09T04:17:07.093Z,222.96
2023-04-09T04:18:07.117Z,222.14
2023-04-09T04:19:07.148Z,216.22
2023-04-09T04:20:07.177Z,211.58
2023-04-09T04:21:07.248Z,209.50
2023-04-09T04:22:07.277Z,207.66
2023-04-09T04:23:07.303Z,206.74
2023-04-09T04:24:07.309Z,208.06
2023-04-09T04:25:07.349Z,210.21
2023-04-09T04:26:07.380Z,212.03
2023-04-09T04:27:07.401Z,212.64
2023-04-09T04:28:07.428Z,212.61
2023-04-09T04:29:07.475Z,213.85
2023-04-09T04:30:07.504Z,214.56
2023-04-09T04:31:07.537Z,215.00
2023-04-09T04:32:07.572Z,213.25
2023-04-09T04:33:07.586Z,212.10
2023-04-09T04:34:07.611Z,212.55
2023-04-09T04:35:07.612Z,213.36
2023-04-09T04:36:07.645Z,214.66
2023-04-09T04:37:07.701Z,215.77
2023-04-09T04:38:07.755Z,217.97
2023-04-09T04:39:07.773Z,221.17
2023-04-09T04:40:07.805Z,222.32
2023-04-09T04:41:07.859Z,221.90
2023-04-09T04:42:07.883Z,222.34
2023-04-09T04:43:07.924Z,224.34
2023-04-09T04:44:07.987Z,222.76
2023-04-09T04:45:08.021Z,222.25
2023-04-09T04:46:08.072Z,222.71
2023-04-09T04:47:08.130Z,222.45
2023-04-09T04:48:08.151Z,221.39
2023-04-09T04:49:08.223Z,219.44
2023-04-09T04:50:08.253Z,217.93
2023-04-09T04:51:08.331Z,217.48
2023-04-09T04:52:08.355Z,218.17
2023-04-09T04:53:08.418Z,218.68
2023-04-09T04:54:08.468Z,220.31
2023-04-09T04:55:08.534Z,220.03
2023-04-09T04:56:08.568Z,219.42
2023-04-09T04:57:08.600Z,217.60
2023-04-09T04:58:08.665Z,218.88
2023-04-09T04:59:08.701Z,218.12
2023-04-09T05:00:08.771Z,217.64
2023-04-09T05:01:08.818Z,218.10
2023-04-09T05:02:08.909Z,218.71
2023-04-09T05:03:08.915Z,219.54
2023-04-09T05:04:08.969Z,218.64
2023-04-09T05:05:08.928Z,219.51
2023-04-09T05:06:08.967Z,222.13
2023-04-09T05:07:09.016Z,223.46
2023-04-09T05:08:09.030Z,224.13
2023-04-09T05:09:09.079Z,222.48
2023-04-09T05:10:09.094Z,222.27
2023-04-09T05:11:09.135Z,223.61
2023-04-09T05:12:09.167Z,225.33
2023-04-09T05:13:09.184Z,223.89
2023-04-09T05:14:09.227Z,223.90
2023-04-09T05:15:09.276Z,222.85
2023-04-09T05:16:09.327Z,222.02
2023-04-09T05:17:09.317Z,223.75
2023-04-09T05:18:09.327Z,226.97
2023-04-09T05:19:09.356Z,229.23
2023-04-09T05:20:09.407Z,232.61
2023-04-09T05:21:09.411Z,235.86
2023-04-09T05:22:09.432Z,238.54
2023-04-09T05:23:09.460Z,239.75
2023-04-09T05:24:09.510Z,240.92
2023-04-09T05:25:09.515Z,241.53
2023-04-09T05:26:09.531Z,245.87
2023-04-09T05:27:09.576Z,250.88
2023-04-09T05:28:09.544Z,251.04
2023-04-09T05:29:09.605Z,250.00
2023-04-09T05:30:09.575Z,250.00
2023-04-09T05:31:09.631Z,249.97
2023-04-09T05:32:09.634Z,249.15
2023-04-09T05:33:09.649Z,246.37
2023-04-09T05:34:09.659Z,241.14
2023-04-09T05:35:09.673Z,236.39
2023-04-09T05:36:09.709Z,232.06
2023-04-09T05:37:09.792Z,228.97
2023-04-09T05:38:09.799Z,227.63
2023-04-09T05:39:09.823Z,225.14
2023-04-09T05:40:09.857Z,223.03
2023-04-09T05:41:09.877Z,222.06
2023-04-09T05:42:09.898Z,221.10
2023-04-09T05:43:09.901Z,219.05
2023-04-09T05:44:09.934Z,219.89
2023-04-09T05:45:09.937Z,222.92
2023-04-09T05:46:09.968Z,223.34
2023-04-09T05:47:09.959Z,223.92
2023-04-09T05:48:09.985Z,224.60
2023-04-09T05:49:09.993Z,225.50
2023-04-09T05:50:10.012Z,226.18
2023-04-09T05:51:10.015Z,227.83
2023-04-09T05:52:10.026Z,230.28
2023-04-09T05:53:10.027Z,231.17
2023-04-09T05:54:10.030Z,229.21
2023-04-09T05:55:10.054Z,225.23
2023-04-09T05:56:10.040Z,222.64
2023-04-09T05:57:10.079Z,219.78
2023-04-09T05:58:10.079Z,219.29
2023-04-09T05:59:10.087Z,220.54
2023-04-09T06:00:10.089Z,221.04
2023-04-09T06:01:10.097Z,221.50
2023-04-09T06:02:10.178Z,221.55
2023-04-09T06:03:10.206Z,219.58
2023-04-09T06:04:10.259Z,215.19
2023-04-09T06:05:10.204Z,214.25
2023-04-09T06:06:10.118Z,213.82
2023-04-09T06:07:10.163Z,214.10
2023-04-09T06:08:10.224Z,215.27
2023-04-09T06:09:10.264Z,214.73
2023-04-09T06:10:10.255Z,215.28
2023-04-09T06:11:10.289Z,217.69
2023-04-09T06:12:10.273Z,219.36
2023-04-09T06:13:10.279Z,218.40
2023-04-09T06:14:10.287Z,218.05
2023-04-09T06:15:10.311Z,218.46
2023-04-09T06:16:10.392Z,219.71
2023-04-09T06:17:10.317Z,220.35
2023-04-09T06:18:10.370Z,218.59
2023-04-09T06:19:10.352Z,218.06
2023-04-09T06:20:10.373Z,218.62
2023-04-09T06:21:10.370Z,220.24
2023-04-09T06:22:10.390Z,220.48
2023-04-09T06:23:10.387Z,220.66
2023-04-09T06:24:10.408Z,220.84
2023-04-09T06:25:10.409Z,222.20
2023-04-09T06:26:10.421Z,224.66
2023-04-09T06:27:10.398Z,227.04
2023-04-09T06:28:10.436Z,227.78
2023-04-09T06:29:10.432Z,229.21
2023-04-09T06:30:10.452Z,229.92
2023-04-09T06:31:10.618Z,230.54
2023-04-09T06:32:10.554Z,234.00
2023-04-09T06:33:10.671Z,241.32
2023-04-09T06:34:10.678Z,249.51
2023-04-09T06:35:11.076Z,248.50
2023-04-09T06:36:10.862Z,246.78
2023-04-09T06:37:10.836Z,244.56
2023-04-09T06:38:10.907Z,239.19
2023-04-09T06:39:10.963Z,236.96
2023-04-09T06:40:11.033Z,236.08
2023-04-09T06:41:11.075Z,231.88
2023-04-09T06:42:11.149Z,230.47
2023-04-09T06:43:11.203Z,227.65
2023-04-09T06:44:11.245Z,223.67
2023-04-09T06:45:11.311Z,223.24
2023-04-09T06:46:11.359Z,224.45
2023-04-09T06:47:11.405Z,224.17
2023-04-09T06:48:11.448Z,224.95
2023-04-09T06:49:11.514Z,226.73
2023-04-09T06:50:11.598Z,227.37
2023-04-09T06:51:11.609Z,227.35
2023-04-09T06:52:11.663Z,227.21
2023-04-09T06:53:11.757Z,225.85
2023-04-09T06:54:11.787Z,225.43
2023-04-09T06:55:11.826Z,225.17
2023-04-09T06:56:11.859Z,226.26
2023-04-09T06:57:11.947Z,223.42
2023-04-09T06:58:11.964Z,223.26
2023-04-09T06:59:12.032Z,217.94
2023-04-09T07:00:12.069Z,210.99
2023-04-09T07:01:12.122Z,208.98
2023-04-09T07:02:12.242Z,207.14
2023-04-09T07:03:12.271Z,204.99
2023-04-09T07:04:12.345Z,204.66
2023-04-09T07:05:12.307Z,206.69
2023-04-09T07:06:12.335Z,212.95
2023-04-09T07:07:12.371Z,220.65
2023-04-09T07:08:12.399Z,224.45
2023-04-09T07:09:12.468Z,224.30
2023-04-09T07:10:12.473Z,220.04
2023-04-09T07:11:12.484Z,211.35
2023-04-09T07:12:12.536Z,209.36
2023-04-09T07:13:12.557Z,212.71
2023-04-09T07:14:12.598Z,211.01
2023-04-09T07:15:12.615Z,204.48
2023-04-09T07:16:12.688Z,200.50
2023-04-09T07:17:12.699Z,192.89
2023-04-09T07:18:12.773Z,190.29
2023-04-09T07:19:12.807Z,190.23
2023-04-09T07:20:12.820Z,190.29
2023-04-09T07:21:12.845Z,191.79
2023-04-09T07:22:12.854Z,192.03
2023-04-09T07:23:12.917Z,194.67
2023-04-09T07:24:12.943Z,194.62
2023-04-09T07:25:12.923Z,191.06
2023-04-09T07:26:12.937Z,190.98
2023-04-09T07:27:12.951Z,192.42
2023-04-09T07:28:13.002Z,193.52
2023-04-09T07:29:12.994Z,197.43
2023-04-09T07:30:12.992Z,201.86
2023-04-09T07:31:13.023Z,202.35
2023-04-09T07:32:12.999Z,195.46
2023-04-09T07:33:13.028Z,182.17
2023-04-09T07:34:13.010Z,174.98
2023-04-09T07:35:13.009Z,169.62
2023-04-09T07:36:13.136Z,169.10
2023-04-09T07:37:13.032Z,172.23
2023-04-09T07:38:13.029Z,171.19
2023-04-09T07:39:13.098Z,174.45
2023-04-09T07:40:13.053Z,173.56
2023-04-09T07:41:13.021Z,172.64
2023-04-09T07:42:13.021Z,179.08
2023-04-09T07:43:13.008Z,189.16
2023-04-09T07:44:13.065Z,193.49
2023-04-09T07:45:13.034Z,192.09
2023-04-09T07:46:13.111Z,188.25
2023-04-09T07:47:13.131Z,183.57
2023-04-09T07:48:13.177Z,175.63
2023-04-09T07:49:13.212Z,166.67
2023-04-09T07:50:13.198Z,159.97
2023-04-09T07:51:13.248Z,158.16
2023-04-09T07:52:13.252Z,155.78
2023-04-09T07:53:13.280Z,156.55
2023-04-09T07:54:13.307Z,161.37
2023-04-09T07:55:13.325Z,167.14
2023-04-09T07:56:13.356Z,174.88
2023-04-09T07:57:13.398Z,180.00
2023-04-09T07:58:13.466Z,178.77
2023-04-09T07:59:13.533Z,174.49
2023-04-09T08:00:13.553Z,172.73
2023-04-09T08:01:13.598Z,165.03
2023-04-09T08:02:15.369Z,159.92
2023-04-09T08:03:14.040Z,153.81
2023-04-09T08:04:13.960Z,153.08
2023-04-09T08:05:13.855Z,152.64
2023-04-09T08:06:13.871Z,153.89
2023-04-09T08:07:13.939Z,155.97
2023-04-09T08:08:13.990Z,156.79
2023-04-09T08:09:14.047Z,154.19
2023-04-09T08:10:14.026Z,150.59
2023-04-09T08:11:14.066Z,147.32
2023-04-09T08:12:14.090Z,147.57
2023-04-09T08:13:14.132Z,149.78
2023-04-09T08:14:14.177Z,153.68
2023-04-09T08:15:14.182Z,151.38
2023-04-09T08:16:14.264Z,146.70
2023-04-09T08:17:14.218Z,141.80
2023-04-09T08:18:14.249Z,140.57
2023-04-09T08:19:14.254Z,139.34
2023-04-09T08:20:14.247Z,139.58
2023-04-09T08:21:14.256Z,136.99
2023-04-09T08:22:14.286Z,135.77
2023-04-09T08:23:14.300Z,130.75
2023-04-09T08:24:14.289Z,128.04
2023-04-09T08:25:14.367Z,125.42
2023-04-09T08:26:14.364Z,120.20
2023-04-09T08:27:14.366Z,118.80
2023-04-09T08:28:14.372Z,118.22
2023-04-09T08:29:14.384Z,119.40
2023-04-09T08:30:15.121Z,120.87
2023-04-09T08:31:14.426Z,119.97
2023-04-09T08:32:14.418Z,115.90
2023-04-09T08:33:14.399Z,115.13
2023-04-09T08:34:14.405Z,109.81
2023-04-09T08:35:14.411Z,107.57
2023-04-09T08:36:14.446Z,109.71
2023-04-09T08:37:14.423Z,114.40
2023-04-09T08:38:14.396Z,118.57
2023-04-09T08:39:14.410Z,117.86
2023-04-09T08:40:14.472Z,107.70
2023-04-09T08:41:15.104Z,100.61
2023-04-09T08:42:14.601Z,89.77
2023-04-09T08:43:14.690Z,86.85
2023-04-09T08:44:14.738Z,86.80
2023-04-09T08:45:14.818Z,94.56
2023-04-09T08:46:14.885Z,101.72
2023-04-09T08:47:14.947Z,101.65
2023-04-09T08:48:15.155Z,105.93
2023-04-09T08:49:15.075Z,108.99
2023-04-09T08:50:15.131Z,113.65
2023-04-09T08:51:15.199Z,113.04
2023-04-09T08:52:15.264Z,115.43
2023-04-09T08:53:15.332Z,123.37
2023-04-09T08:54:15.395Z,126.65
2023-04-09T08:55:15.439Z,128.45
2023-04-09T08:56:15.520Z,131.10
2023-04-09T08:57:15.554Z,128.42
2023-04-09T08:58:15.597Z,121.40
2023-04-09T08:59:15.642Z,122.00
2023-04-09T09:00:15.697Z,122.39
2023-04-09T09:01:15.738Z,120.88
2023-04-09T09:02:15.809Z,116.98
2023-04-09T09:03:15.913Z,116.32
2023-04-09T09:04:15.910Z,117.35
2023-04-09T09:05:15.934Z,120.22
2023-04-09T09:06:15.994Z,121.92
2023-04-09T09:07:16.075Z,116.55
2023-04-09T09:08:16.120Z,110.11
2023-04-09T09:09:16.167Z,102.50
2023-04-09T09:10:16.234Z,88.72
2023-04-09T09:11:16.251Z,77.18
2023-04-09T09:12:16.264Z,73.78
2023-04-09T09:13:16.303Z,71.20
2023-04-09T09:14:16.377Z,62.26
2023-04-09T09:15:16.357Z,59.50
2023-04-09T09:16:16.470Z,63.28
2023-04-09T09:17:16.430Z,62.93
2023-04-09T09:18:16.481Z,55.62
2023-04-09T09:19:16.506Z,55.61
2023-04-09T09:20:16.561Z,60.74
2023-04-09T09:21:16.587Z,66.02
2023-04-09T09:22:16.576Z,68.06
2023-04-09T09:23:16.579Z,69.42
2023-04-09T09:24:16.610Z,68.78
2023-04-09T09:25:16.625Z,62.02
2023-04-09T09:26:16.678Z,62.03
2023-04-09T09:27:16.606Z,65.92
2023-04-09T09:28:16.617Z,73.12
2023-04-09T09:29:16.631Z,78.86
2023-04-09T09:30:16.639Z,83.04
2023-04-09T09:31:16.658Z,85.52
2023-04-09T09:32:16.647Z,92.09
2023-04-09T09:33:16.664Z,95.83
2023-04-09T09:34:16.712Z,96.98
2023-04-09T09:35:16.735Z,98.77
2023-04-09T09:36:16.756Z,91.62
2023-04-09T09:37:16.771Z,84.83
2023-04-09T09:38:16.801Z,70.44
2023-04-09T09:39:16.824Z,59.64
2023-04-09T09:40:16.849Z,49.97
2023-04-09T09:41:16.864Z,45.10
2023-04-09T09:42:16.931Z,46.72
2023-04-09T09:43:16.885Z,49.73
2023-04-09T09:44:16.900Z,49.54
2023-04-09T09:45:16.900Z,45.48
2023-04-09T09:46:16.952Z,37.59
2023-04-09T09:47:16.905Z,29.07
2023-04-09T09:48:16.916Z,25.18
2023-04-09T09:49:16.916Z,15.28
2023-04-09T09:50:17.020Z,5.22
2023-04-09T09:51:16.923Z,10.89
2023-04-09T09:52:16.936Z,20.20
2023-04-09T09:53:16.931Z,22.89
2023-04-09T09:54:16.921Z,26.18
2023-04-09T09:55:16.924Z,28.11
2023-04-09T09:56:16.937Z,31.54
2023-04-09T09:57:17.075Z,34.11
2023-04-09T09:58:16.950Z,31.66
2023-04-09T09:59:16.982Z,24.27
2023-04-09T10:00:18.627Z,25.15
2023-04-09T10:01:17.149Z,26.31
2023-04-09T10:02:17.279Z,25.33
2023-04-09T10:03:17.239Z,24.70
2023-04-09T10:04:17.285Z,26.10
2023-04-09T10:05:17.324Z,26.29
2023-04-09T10:06:17.378Z,25.16
2023-04-09T10:07:17.427Z,25.60
2023-04-09T10:08:17.437Z,27.25
2023-04-09T10:09:17.452Z,31.35
2023-04-09T10:10:17.476Z,33.18
2023-04-09T10:11:17.524Z,34.56
2023-04-09T10:12:17.579Z,33.20
2023-04-09T10:13:17.603Z,30.17
2023-04-09T10:14:17.654Z,25.00
2023-04-09T10:15:17.724Z,25.00
2023-04-09T10:16:17.831Z,26.80
2023-04-09T10:17:17.836Z,25.00
2023-04-09T10:18:17.863Z,23.71
2023-04-09T10:19:17.893Z,22.80
2023-04-09T10:20:17.936Z,21.59
2023-04-09T10:21:17.982Z,25.13
2023-04-09T10:22:18.040Z,25.00
2023-04-09T10:23:18.124Z,26.75
2023-04-09T10:24:18.193Z,28.56
2023-04-09T10:25:18.184Z,24.49
2023-04-09T10:26:18.227Z,23.83
2023-04-09T10:27:18.270Z,22.14
2023-04-09T10:28:18.328Z,21.73
2023-04-09T10:29:18.367Z,19.05
2023-04-09T10:30:18.419Z,18.54
2023-04-09T10:31:18.479Z,20.91
2023-04-09T10:32:18.472Z,24.15
2023-04-09T10:33:18.526Z,24.76
2023-04-09T10:34:18.547Z,22.66
2023-04-09T10:35:18.594Z,25.61
2023-04-09T10:36:18.653Z,25.20
2023-04-09T10:37:18.662Z,24.77
2023-04-09T10:38:18.700Z,24.88
2023-04-09T10:39:18.733Z,26.62
2023-04-09T10:40:18.756Z,29.93
2023-04-09T10:41:18.767Z,38.26
2023-04-09T10:42:18.803Z,32.87
2023-04-09T10:43:18.869Z,22.64
2023-04-09T10:44:18.941Z,21.25
2023-04-09T10:45:20.639Z,25.44
2023-04-09T10:46:18.940Z,25.00
2023-04-09T10:47:18.906Z,25.01
2023-04-09T10:48:18.878Z,23.72
2023-04-09T10:49:18.894Z,25.01
2023-04-09T10:50:18.905Z,25.35
2023-04-09T10:51:18.893Z,26.53
2023-04-09T10:52:18.964Z,26.88
2023-04-09T10:53:18.867Z,23.91
2023-04-09T10:54:18.866Z,24.61
2023-04-09T10:55:18.889Z,29.64
2023-04-09T10:56:18.846Z,29.64
2023-04-09T10:57:18.914Z,30.00
2023-04-09T10:58:18.832Z,27.33
2023-04-09T10:59:18.822Z,25.26
2023-04-09T11:00:18.857Z,26.14
2023-04-09T11:01:18.852Z,31.06
2023-04-09T11:02:18.856Z,32.16
2023-04-09T11:03:18.941Z,29.49
2023-04-09T11:04:18.818Z,27.88
2023-04-09T11:05:18.784Z,27.32
2023-04-09T11:06:18.789Z,25.00
2023-04-09T11:07:18.777Z,24.34
2023-04-09T11:08:18.772Z,28.75
2023-04-09T11:09:18.787Z,29.45
2023-04-09T11:10:18.766Z,28.89
2023-04-09T11:11:18.745Z,27.19
2023-04-09T11:12:18.761Z,26.26
2023-04-09T11:13:18.719Z,26.24
2023-04-09T11:14:18.707Z,24.70
2023-04-09T11:15:18.738Z,21.61
2023-04-09T11:16:22.833Z,22.28
2023-04-09T11:17:19.700Z,22.35
2023-04-09T11:18:18.677Z,23.40
2023-04-09T11:19:18.694Z,25.60
2023-04-09T11:20:18.666Z,29.63
2023-04-09T11:21:18.692Z,32.89
2023-04-09T11:22:18.745Z,30.64
2023-04-09T11:23:18.664Z,32.21
2023-04-09T11:24:18.648Z,37.13
2023-04-09T11:25:18.649Z,40.78
2023-04-09T11:26:18.627Z,41.23
2023-04-09T11:27:18.657Z,42.19
2023-04-09T11:28:18.730Z,38.79
2023-04-09T11:29:18.790Z,35.44
2023-04-09T11:30:18.852Z,35.86
2023-04-09T11:31:18.910Z,33.07
2023-04-09T11:32:18.946Z,39.83
2023-04-09T11:33:20.257Z,46.31
2023-04-09T11:34:18.981Z,47.75
2023-04-09T11:35:19.019Z,48.42
2023-04-09T11:36:19.103Z,48.05
2023-04-09T11:37:19.082Z,47.18
2023-04-09T11:38:19.095Z,44.18
2023-04-09T11:39:19.149Z,41.12
2023-04-09T11:40:19.170Z,39.67
2023-04-09T11:41:19.184Z,37.69
2023-04-09T11:42:19.221Z,38.32
2023-04-09T11:43:19.261Z,46.29
2023-04-09T11:44:20.052Z,46.65
2023-04-09T11:45:19.304Z,48.88
2023-04-09T11:46:19.352Z,54.41
2023-04-09T11:47:19.445Z,48.37
2023-04-09T11:48:19.405Z,34.14
2023-04-09T11:49:19.412Z,27.14
2023-04-09T11:50:19.445Z,25.00
2023-04-09T11:51:19.478Z,26.11
2023-04-09T11:52:19.487Z,28.85
2023-04-09T11:53:19.521Z,28.82
2023-04-09T11:54:19.557Z,30.33
2023-04-09T11:55:19.603Z,35.48
2023-04-09T11:56:19.644Z,37.19
2023-04-09T11:57:19.674Z,35.36
2023-04-09T11:58:19.692Z,35.83
2023-04-09T11:59:19.723Z,35.13
2023-04-09T12:00:19.785Z,34.79
2023-04-09T12:01:19.808Z,30.30
2023-04-09T12:02:19.981Z,23.84
2023-04-09T12:03:20.099Z,25.13
2023-04-09T12:04:20.132Z,23.60
2023-04-09T12:05:20.036Z,22.16
2023-04-09T12:06:20.033Z,25.00
2023-04-09T12:07:20.066Z,24.71
2023-04-09T12:08:20.107Z,25.14
2023-04-09T12:09:20.140Z,29.85
2023-04-09T12:10:20.170Z,34.44
2023-04-09T12:11:20.223Z,34.34
2023-04-09T12:12:20.212Z,24.57
2023-04-09T12:13:20.230Z,22.74
2023-04-09T12:14:20.236Z,24.72
2023-04-09T12:15:20.312Z,22.22
2023-04-09T12:16:20.315Z,23.37
2023-04-09T12:17:20.456Z,28.17
2023-04-09T12:18:20.284Z,29.51
2023-04-09T12:19:20.313Z,33.45
2023-04-09T12:20:20.326Z,33.70
2023-04-09T12:21:20.335Z,31.47
2023-04-09T12:22:20.359Z,30.59
2023-04-09T12:23:20.353Z,34.39
2023-04-09T12:24:20.392Z,35.03
2023-04-09T12:25:20.391Z,36.00
2023-04-09T12:26:20.416Z,33.73
2023-04-09T12:27:20.434Z,31.54
2023-04-09T12:28:20.454Z,27.99
2023-04-09T12:29:20.467Z,26.18
2023-04-09T12:30:20.502Z,29.11
2023-04-09T12:31:20.553Z,32.23
2023-04-09T12:32:20.548Z,36.79
2023-04-09T12:33:20.534Z,40.32
2023-04-09T12:34:20.589Z,45.58
2023-04-09T12:35:20.594Z,44.65
2023-04-09T12:36:20.621Z,39.76